sensor_id;sensor_type;location;lat;lon;timestamp;temperature;humidity
35559;DHT22;21661;50.794;-1.066;2023-02-27T00:02:15;3.70;99.90
35559;DHT22;21661;50.794;-1.066;2023-02-27T00:04:40;3.60;99.90
35559;DHT22;21661;50.794;-1.066;2023-02-27T00:07:06;3.70;99.90
35559;DHT22;21661;50.794;-1.066;2023-02-27T00:09:33;3.70;99.90
35559;DHT22;21661;50.794;-1.066;2023-02-27T00:11:59;3.70;99.90
35559;DHT22;21661;50.794;-1.066;2023-02-27T00:14:24;3.70;99.90
35559;DHT22;21661;50.794;-1.066;2023-02-27T00:16:50;3.60;99.90
35559;DHT22;21661;50.794;-1.066;2023-02-27T00:19:15;3.60;99.90
35559;DHT22;21661;50.794;-1.066;2023-02-27T00:21:41;3.60;99.90
35559;DHT22;21661;50.794;-1.066;2023-02-27T00:24:09;3.60;99.90
35559;DHT22;21661;50.794;-1.066;2023-02-27T00:26:35;3.50;99.90
35559;DHT22;21661;50.794;-1.066;2023-02-27T00:29:02;3.60;99.90
35559;DHT22;21661;50.794;-1.066;2023-02-27T00:31:28;3.60;99.90
35559;DHT22;21661;50.794;-1.066;2023-02-27T00:33:53;3.60;99.90
35559;DHT22;21661;50.794;-1.066;2023-02-27T00:36:19;3.70;99.90
35559;DHT22;21661;50.794;-1.066;2023-02-27T00:38:44;3.60;99.90
35559;DHT22;21661;50.794;-1.066;2023-02-27T00:41:10;3.60;99.90
35559;DHT22;21661;50.794;-1.066;2023-02-27T00:43:36;3.60;99.90
35559;DHT22;21661;50.794;-1.066;2023-02-27T00:46:02;3.60;99.90
35559;DHT22;21661;50.794;-1.066;2023-02-27T00:48:27;3.60;99.90
35559;DHT22;21661;50.794;-1.066;2023-02-27T00:50:53;3.60;99.90
35559;DHT22;21661;50.794;-1.066;2023-02-27T00:53:18;3.60;99.90
35559;DHT22;21661;50.794;-1.066;2023-02-27T00:55:44;3.60;99.90
35559;DHT22;21661;50.794;-1.066;2023-02-27T00:58:09;3.60;99.90
35559;DHT22;21661;50.794;-1.066;2023-02-27T01:00:35;3.60;99.90
35559;DHT22;21661;50.794;-1.066;2023-02-27T01:03:00;3.60;99.90
35559;DHT22;21661;50.794;-1.066;2023-02-27T01:05:26;3.60;99.90
35559;DHT22;21661;50.794;-1.066;2023-02-27T01:07:52;3.60;99.90
35559;DHT22;21661;50.794;-1.066;2023-02-27T01:10:18;3.60;99.90
35559;DHT22;21661;50.794;-1.066;2023-02-27T01:12:44;3.60;99.90
35559;DHT22;21661;50.794;-1.066;2023-02-27T01:15:10;3.60;99.90
35559;DHT22;21661;50.794;-1.066;2023-02-27T01:17:36;3.60;99.90
35559;DHT22;21661;50.794;-1.066;2023-02-27T01:20:02;3.60;99.90
35559;DHT22;21661;50.794;-1.066;2023-02-27T01:22:28;3.70;99.90
35559;DHT22;21661;50.794;-1.066;2023-02-27T01:24:54;3.60;99.90
35559;DHT22;21661;50.794;-1.066;2023-02-27T01:27:19;3.60;99.90
35559;DHT22;21661;50.794;-1.066;2023-02-27T01:29:45;3.50;99.90
35559;DHT22;21661;50.794;-1.066;2023-02-27T01:32:10;3.60;99.90
35559;DHT22;21661;50.794;-1.066;2023-02-27T01:34:36;3.60;99.90
35559;DHT22;21661;50.794;-1.066;2023-02-27T01:37:02;3.50;99.90
35559;DHT22;21661;50.794;-1.066;2023-02-27T01:39:27;3.50;99.90
35559;DHT22;21661;50.794;-1.066;2023-02-27T01:41:53;3.50;99.90
35559;DHT22;21661;50.794;-1.066;2023-02-27T01:44:19;3.50;99.90
35559;DHT22;21661;50.794;-1.066;2023-02-27T01:46:45;3.50;99.90
35559;DHT22;21661;50.794;-1.066;2023-02-27T01:49:11;3.50;99.90
35559;DHT22;21661;50.794;-1.066;2023-02-27T01:51:45;3.50;99.90
35559;DHT22;21661;50.794;-1.066;2023-02-27T01:54:16;3.50;99.90
35559;DHT22;21661;50.794;-1.066;2023-02-27T01:56:42;3.50;99.90
35559;DHT22;21661;50.794;-1.066;2023-02-27T01:59:09;3.50;99.90
35559;DHT22;21661;50.794;-1.066;2023-02-27T02:01:35;3.50;99.90
35559;DHT22;21661;50.794;-1.066;2023-02-27T02:04:09;3.40;99.90
35559;DHT22;21661;50.794;-1.066;2023-02-27T02:06:39;3.40;99.90
35559;DHT22;21661;50.794;-1.066;2023-02-27T02:09:08;3.40;99.90
35559;DHT22;21661;50.794;-1.066;2023-02-27T02:11:36;3.40;99.90
35559;DHT22;21661;50.794;-1.066;2023-02-27T02:14:03;3.30;99.90
35559;DHT22;21661;50.794;-1.066;2023-02-27T02:16:44;3.40;99.90
35559;DHT22;21661;50.794;-1.066;2023-02-27T02:28:10;3.40;99.90
35559;DHT22;21661;50.794;-1.066;2023-02-27T02:41:36;3.30;99.90
35559;DHT22;21661;50.794;-1.066;2023-02-27T02:47:02;3.30;99.90
35559;DHT22;21661;50.794;-1.066;2023-02-27T02:52:11;3.20;99.90
35559;DHT22;21661;50.794;-1.066;2023-02-27T02:54:43;3.30;99.90
35559;DHT22;21661;50.794;-1.066;2023-02-27T02:57:16;3.30;99.90
35559;DHT22;21661;50.794;-1.066;2023-02-27T03:02:12;3.30;99.90
35559;DHT22;21661;50.794;-1.066;2023-02-27T03:04:49;3.30;99.90
35559;DHT22;21661;50.794;-1.066;2023-02-27T03:07:29;3.30;99.90
35559;DHT22;21661;50.794;-1.066;2023-02-27T03:10:47;3.30;99.90
35559;DHT22;21661;50.794;-1.066;2023-02-27T03:13:11;3.30;99.90
35559;DHT22;21661;50.794;-1.066;2023-02-27T03:15:48;3.30;99.90
35559;DHT22;21661;50.794;-1.066;2023-02-27T03:18:21;3.30;99.90
35559;DHT22;21661;50.794;-1.066;2023-02-27T03:20:59;3.30;99.90
35559;DHT22;21661;50.794;-1.066;2023-02-27T03:23:39;3.30;99.90
35559;DHT22;21661;50.794;-1.066;2023-02-27T03:26:07;3.30;99.90
35559;DHT22;21661;50.794;-1.066;2023-02-27T03:28:39;3.30;99.90
35559;DHT22;21661;50.794;-1.066;2023-02-27T03:31:10;3.30;99.90
35559;DHT22;21661;50.794;-1.066;2023-02-27T03:33:56;3.20;99.90
35559;DHT22;21661;50.794;-1.066;2023-02-27T03:36:29;3.30;99.90
35559;DHT22;21661;50.794;-1.066;2023-02-27T03:42:17;3.30;99.90
35559;DHT22;21661;50.794;-1.066;2023-02-27T03:47:25;3.20;99.90
35559;DHT22;21661;50.794;-1.066;2023-02-27T03:49:51;3.20;99.90
35559;DHT22;21661;50.794;-1.066;2023-02-27T03:52:18;3.20;99.90
35559;DHT22;21661;50.794;-1.066;2023-02-27T03:55:07;3.20;99.90
35559;DHT22;21661;50.794;-1.066;2023-02-27T03:57:35;3.20;99.90
35559;DHT22;21661;50.794;-1.066;2023-02-27T04:00:03;3.20;99.90
35559;DHT22;21661;50.794;-1.066;2023-02-27T04:02:31;3.20;99.90
35559;DHT22;21661;50.794;-1.066;2023-02-27T04:04:57;3.20;99.90
35559;DHT22;21661;50.794;-1.066;2023-02-27T04:16:41;3.20;99.90
35559;DHT22;21661;50.794;-1.066;2023-02-27T04:32:51;3.20;99.90
35559;DHT22;21661;50.794;-1.066;2023-02-27T04:35:25;3.30;99.90
35559;DHT22;21661;50.794;-1.066;2023-02-27T04:37:59;3.30;99.90
35559;DHT22;21661;50.794;-1.066;2023-02-27T04:40:32;3.20;99.90
35559;DHT22;21661;50.794;-1.066;2023-02-27T04:43:00;3.20;99.90
35559;DHT22;21661;50.794;-1.066;2023-02-27T04:45:28;3.10;99.90
35559;DHT22;21661;50.794;-1.066;2023-02-27T04:48:02;3.10;99.90
35559;DHT22;21661;50.794;-1.066;2023-02-27T04:50:36;3.20;99.90
35559;DHT22;21661;50.794;-1.066;2023-02-27T04:53:17;3.20;99.90
35559;DHT22;21661;50.794;-1.066;2023-02-27T04:55:49;3.10;99.90
35559;DHT22;21661;50.794;-1.066;2023-02-27T04:58:23;3.10;99.90
35559;DHT22;21661;50.794;-1.066;2023-02-27T05:00:58;3.10;99.90
35559;DHT22;21661;50.794;-1.066;2023-02-27T05:03:32;3.10;99.90
35559;DHT22;21661;50.794;-1.066;2023-02-27T05:06:00;3.10;99.90
35559;DHT22;21661;50.794;-1.066;2023-02-27T05:08:41;3.10;99.90
35559;DHT22;21661;50.794;-1.066;2023-02-27T05:11:20;3.10;99.90
35559;DHT22;21661;50.794;-1.066;2023-02-27T05:14:35;3.20;99.90
35559;DHT22;21661;50.794;-1.066;2023-02-27T05:17:19;3.10;99.90
35559;DHT22;21661;50.794;-1.066;2023-02-27T05:19:47;3.10;99.90
35559;DHT22;21661;50.794;-1.066;2023-02-27T05:28:00;3.00;99.90
35559;DHT22;21661;50.794;-1.066;2023-02-27T05:31:02;3.00;99.90
35559;DHT22;21661;50.794;-1.066;2023-02-27T05:33:37;3.00;99.90
35559;DHT22;21661;50.794;-1.066;2023-02-27T05:36:30;3.00;99.90
35559;DHT22;21661;50.794;-1.066;2023-02-27T05:39:01;3.00;99.90
35559;DHT22;21661;50.794;-1.066;2023-02-27T05:44:32;2.90;99.90
35559;DHT22;21661;50.794;-1.066;2023-02-27T05:47:03;2.90;99.90
35559;DHT22;21661;50.794;-1.066;2023-02-27T05:49:42;2.90;99.90
35559;DHT22;21661;50.794;-1.066;2023-02-27T05:52:13;2.90;99.90
35559;DHT22;21661;50.794;-1.066;2023-02-27T05:57:09;2.90;99.90
35559;DHT22;21661;50.794;-1.066;2023-02-27T06:00:07;2.80;99.90
35559;DHT22;21661;50.794;-1.066;2023-02-27T06:02:34;2.80;99.90
35559;DHT22;21661;50.794;-1.066;2023-02-27T06:05:00;2.90;99.90
35559;DHT22;21661;50.794;-1.066;2023-02-27T06:07:30;2.90;99.90
35559;DHT22;21661;50.794;-1.066;2023-02-27T06:09:56;2.90;99.90
35559;DHT22;21661;50.794;-1.066;2023-02-27T06:12:21;2.90;99.90
35559;DHT22;21661;50.794;-1.066;2023-02-27T06:14:47;2.90;99.90
35559;DHT22;21661;50.794;-1.066;2023-02-27T06:17:12;2.90;99.90
35559;DHT22;21661;50.794;-1.066;2023-02-27T06:19:38;2.90;99.90
35559;DHT22;21661;50.794;-1.066;2023-02-27T06:22:04;2.80;99.90
35559;DHT22;21661;50.794;-1.066;2023-02-27T06:24:29;2.80;99.90
35559;DHT22;21661;50.794;-1.066;2023-02-27T06:26:55;2.90;99.90
35559;DHT22;21661;50.794;-1.066;2023-02-27T06:29:21;2.90;99.90
35559;DHT22;21661;50.794;-1.066;2023-02-27T06:31:46;2.90;99.90
35559;DHT22;21661;50.794;-1.066;2023-02-27T06:34:12;2.90;99.90
35559;DHT22;21661;50.794;-1.066;2023-02-27T06:36:37;2.90;99.90
35559;DHT22;21661;50.794;-1.066;2023-02-27T06:39:03;2.90;99.90
35559;DHT22;21661;50.794;-1.066;2023-02-27T06:41:29;2.90;99.90
35559;DHT22;21661;50.794;-1.066;2023-02-27T06:43:55;2.90;99.90
35559;DHT22;21661;50.794;-1.066;2023-02-27T06:46:22;2.90;99.90
35559;DHT22;21661;50.794;-1.066;2023-02-27T06:48:48;2.80;99.90
35559;DHT22;21661;50.794;-1.066;2023-02-27T06:51:14;2.80;99.90
35559;DHT22;21661;50.794;-1.066;2023-02-27T06:53:39;2.80;99.90
35559;DHT22;21661;50.794;-1.066;2023-02-27T06:56:05;2.80;99.90
35559;DHT22;21661;50.794;-1.066;2023-02-27T06:58:31;2.80;99.90
35559;DHT22;21661;50.794;-1.066;2023-02-27T07:00:58;2.80;99.90
35559;DHT22;21661;50.794;-1.066;2023-02-27T07:03:25;2.80;99.90
35559;DHT22;21661;50.794;-1.066;2023-02-27T07:05:50;2.80;99.90
35559;DHT22;21661;50.794;-1.066;2023-02-27T07:08:16;2.80;99.90
35559;DHT22;21661;50.794;-1.066;2023-02-27T07:10:43;2.80;99.90
35559;DHT22;21661;50.794;-1.066;2023-02-27T07:13:12;2.80;99.90
35559;DHT22;21661;50.794;-1.066;2023-02-27T07:15:38;2.80;99.90
35559;DHT22;21661;50.794;-1.066;2023-02-27T07:18:04;2.80;99.90
35559;DHT22;21661;50.794;-1.066;2023-02-27T07:20:29;2.80;99.90
35559;DHT22;21661;50.794;-1.066;2023-02-27T07:22:55;2.80;99.90
35559;DHT22;21661;50.794;-1.066;2023-02-27T07:25:20;2.80;99.90
35559;DHT22;21661;50.794;-1.066;2023-02-27T07:27:46;2.80;99.90
35559;DHT22;21661;50.794;-1.066;2023-02-27T07:30:14;2.70;99.90
35559;DHT22;21661;50.794;-1.066;2023-02-27T07:32:40;2.70;99.90
35559;DHT22;21661;50.794;-1.066;2023-02-27T07:35:06;2.70;99.90
35559;DHT22;21661;50.794;-1.066;2023-02-27T07:37:32;2.60;99.90
35559;DHT22;21661;50.794;-1.066;2023-02-27T07:39:57;2.70;99.90
35559;DHT22;21661;50.794;-1.066;2023-02-27T07:42:23;2.60;99.90
35559;DHT22;21661;50.794;-1.066;2023-02-27T07:44:48;2.70;99.90
35559;DHT22;21661;50.794;-1.066;2023-02-27T07:47:14;2.70;99.90
35559;DHT22;21661;50.794;-1.066;2023-02-27T07:49:42;2.70;99.90
35559;DHT22;21661;50.794;-1.066;2023-02-27T07:52:07;2.70;99.90
35559;DHT22;21661;50.794;-1.066;2023-02-27T07:54:33;2.70;99.90
35559;DHT22;21661;50.794;-1.066;2023-02-27T07:57:01;2.80;99.90
35559;DHT22;21661;50.794;-1.066;2023-02-27T07:59:27;2.90;99.90
35559;DHT22;21661;50.794;-1.066;2023-02-27T08:01:52;2.90;99.90
35559;DHT22;21661;50.794;-1.066;2023-02-27T08:04:18;2.90;99.90
35559;DHT22;21661;50.794;-1.066;2023-02-27T08:06:43;2.90;99.90
35559;DHT22;21661;50.794;-1.066;2023-02-27T08:09:09;3.00;99.90
35559;DHT22;21661;50.794;-1.066;2023-02-27T08:11:35;3.00;99.90
35559;DHT22;21661;50.794;-1.066;2023-02-27T08:14:00;3.10;99.90
35559;DHT22;21661;50.794;-1.066;2023-02-27T08:16:26;3.10;99.90
35559;DHT22;21661;50.794;-1.066;2023-02-27T08:18:52;3.20;99.90
35559;DHT22;21661;50.794;-1.066;2023-02-27T08:21:17;3.20;99.90
35559;DHT22;21661;50.794;-1.066;2023-02-27T08:23:43;3.20;99.90
35559;DHT22;21661;50.794;-1.066;2023-02-27T08:26:08;3.30;99.90
35559;DHT22;21661;50.794;-1.066;2023-02-27T08:28:34;3.40;99.90
35559;DHT22;21661;50.794;-1.066;2023-02-27T08:31:00;3.40;99.90
35559;DHT22;21661;50.794;-1.066;2023-02-27T08:33:25;3.40;99.90
35559;DHT22;21661;50.794;-1.066;2023-02-27T08:35:51;3.50;99.90
35559;DHT22;21661;50.794;-1.066;2023-02-27T08:38:18;3.50;99.90
35559;DHT22;21661;50.794;-1.066;2023-02-27T08:40:44;3.50;99.90
35559;DHT22;21661;50.794;-1.066;2023-02-27T08:43:10;3.60;99.90
35559;DHT22;21661;50.794;-1.066;2023-02-27T08:45:35;3.60;99.90
35559;DHT22;21661;50.794;-1.066;2023-02-27T08:48:01;3.70;99.90
35559;DHT22;21661;50.794;-1.066;2023-02-27T08:50:26;3.70;99.90
35559;DHT22;21661;50.794;-1.066;2023-02-27T08:52:52;3.80;99.90
35559;DHT22;21661;50.794;-1.066;2023-02-27T08:55:18;3.80;99.90
35559;DHT22;21661;50.794;-1.066;2023-02-27T08:57:43;3.80;99.90
35559;DHT22;21661;50.794;-1.066;2023-02-27T09:00:09;3.90;99.90
35559;DHT22;21661;50.794;-1.066;2023-02-27T09:02:39;3.90;99.90
35559;DHT22;21661;50.794;-1.066;2023-02-27T09:05:05;3.90;99.90
35559;DHT22;21661;50.794;-1.066;2023-02-27T09:07:31;3.90;99.90
35559;DHT22;21661;50.794;-1.066;2023-02-27T09:09:58;4.00;99.90
35559;DHT22;21661;50.794;-1.066;2023-02-27T09:12:24;4.10;99.90
35559;DHT22;21661;50.794;-1.066;2023-02-27T09:14:50;4.20;99.90
35559;DHT22;21661;50.794;-1.066;2023-02-27T09:17:15;4.30;99.90
35559;DHT22;21661;50.794;-1.066;2023-02-27T09:19:41;4.30;99.90
35559;DHT22;21661;50.794;-1.066;2023-02-27T09:22:06;4.40;99.90
35559;DHT22;21661;50.794;-1.066;2023-02-27T09:24:32;4.40;99.90
35559;DHT22;21661;50.794;-1.066;2023-02-27T09:26:58;4.50;99.90
35559;DHT22;21661;50.794;-1.066;2023-02-27T09:29:23;4.50;99.90
35559;DHT22;21661;50.794;-1.066;2023-02-27T09:31:50;4.60;99.90
35559;DHT22;21661;50.794;-1.066;2023-02-27T09:34:16;4.60;99.90
35559;DHT22;21661;50.794;-1.066;2023-02-27T09:36:41;4.60;99.90
35559;DHT22;21661;50.794;-1.066;2023-02-27T09:39:07;4.70;99.90
35559;DHT22;21661;50.794;-1.066;2023-02-27T09:42:04;4.70;99.90
35559;DHT22;21661;50.794;-1.066;2023-02-27T09:44:43;4.80;99.90
35559;DHT22;21661;50.794;-1.066;2023-02-27T09:47:14;4.90;99.90
35559;DHT22;21661;50.794;-1.066;2023-02-27T09:49:46;4.90;99.90
35559;DHT22;21661;50.794;-1.066;2023-02-27T09:52:13;4.90;99.90
35559;DHT22;21661;50.794;-1.066;2023-02-27T09:54:39;5.00;99.90
35559;DHT22;21661;50.794;-1.066;2023-02-27T09:57:13;5.10;99.90
35559;DHT22;21661;50.794;-1.066;2023-02-27T09:59:48;5.10;99.90
35559;DHT22;21661;50.794;-1.066;2023-02-27T10:08:32;5.30;99.90
35559;DHT22;21661;50.794;-1.066;2023-02-27T10:11:10;5.40;99.90
35559;DHT22;21661;50.794;-1.066;2023-02-27T10:16:18;5.50;99.90
35559;DHT22;21661;50.794;-1.066;2023-02-27T10:18:57;5.60;99.90
35559;DHT22;21661;50.794;-1.066;2023-02-27T10:21:39;5.60;99.90
35559;DHT22;21661;50.794;-1.066;2023-02-27T10:26:43;5.70;99.90
35559;DHT22;21661;50.794;-1.066;2023-02-27T10:29:31;5.70;99.90
35559;DHT22;21661;50.794;-1.066;2023-02-27T10:32:16;5.70;99.90
35559;DHT22;21661;50.794;-1.066;2023-02-27T10:37:48;5.90;99.90
35559;DHT22;21661;50.794;-1.066;2023-02-27T10:40:15;6.00;99.90
35559;DHT22;21661;50.794;-1.066;2023-02-27T10:42:41;6.00;99.90
35559;DHT22;21661;50.794;-1.066;2023-02-27T10:45:13;6.10;99.90
35559;DHT22;21661;50.794;-1.066;2023-02-27T10:47:42;6.20;99.90
35559;DHT22;21661;50.794;-1.066;2023-02-27T10:52:57;6.50;99.90
35559;DHT22;21661;50.794;-1.066;2023-02-27T10:55:32;6.50;99.90
35559;DHT22;21661;50.794;-1.066;2023-02-27T10:57:58;6.60;99.90
35559;DHT22;21661;50.794;-1.066;2023-02-27T11:00:52;6.60;99.90
35559;DHT22;21661;50.794;-1.066;2023-02-27T11:03:23;6.80;99.90
35559;DHT22;21661;50.794;-1.066;2023-02-27T11:05:56;6.80;99.90
35559;DHT22;21661;50.794;-1.066;2023-02-27T11:08:28;6.80;99.90
35559;DHT22;21661;50.794;-1.066;2023-02-27T11:11:05;6.90;99.90
35559;DHT22;21661;50.794;-1.066;2023-02-27T11:13:33;7.00;99.90
35559;DHT22;21661;50.794;-1.066;2023-02-27T11:18:28;7.10;99.90
35559;DHT22;21661;50.794;-1.066;2023-02-27T11:24:00;7.10;99.90
35559;DHT22;21661;50.794;-1.066;2023-02-27T11:26:41;7.20;99.90
35559;DHT22;21661;50.794;-1.066;2023-02-27T11:29:19;7.20;99.90
35559;DHT22;21661;50.794;-1.066;2023-02-27T11:36:58;7.40;99.90
35559;DHT22;21661;50.794;-1.066;2023-02-27T11:39:38;7.40;99.90
35559;DHT22;21661;50.794;-1.066;2023-02-27T11:42:11;7.50;99.90
35559;DHT22;21661;50.794;-1.066;2023-02-27T11:44:44;7.50;99.90
35559;DHT22;21661;50.794;-1.066;2023-02-27T11:47:27;7.50;99.90
35559;DHT22;21661;50.794;-1.066;2023-02-27T11:55:32;7.80;99.90
35559;DHT22;21661;50.794;-1.066;2023-02-27T11:58:08;7.80;99.90
35559;DHT22;21661;50.794;-1.066;2023-02-27T12:00:38;7.90;99.90
35559;DHT22;21661;50.794;-1.066;2023-02-27T12:05:44;8.20;99.90
35559;DHT22;21661;50.794;-1.066;2023-02-27T12:11:00;8.50;99.90
35559;DHT22;21661;50.794;-1.066;2023-02-27T12:13:30;8.60;99.90
35559;DHT22;21661;50.794;-1.066;2023-02-27T12:16:21;8.80;99.90
35559;DHT22;21661;50.794;-1.066;2023-02-27T12:18:56;8.90;99.90
35559;DHT22;21661;50.794;-1.066;2023-02-27T12:21:36;9.00;99.90
35559;DHT22;21661;50.794;-1.066;2023-02-27T12:26:51;9.20;99.90
35559;DHT22;21661;50.794;-1.066;2023-02-27T12:37:15;8.70;99.90
35559;DHT22;21661;50.794;-1.066;2023-02-27T12:39:43;8.70;99.90
35559;DHT22;21661;50.794;-1.066;2023-02-27T12:50:25;8.30;99.90
35559;DHT22;21661;50.794;-1.066;2023-02-27T12:55:52;8.70;99.90
35559;DHT22;21661;50.794;-1.066;2023-02-27T13:01:02;8.90;99.90
35559;DHT22;21661;50.794;-1.066;2023-02-27T13:03:56;8.90;99.90
35559;DHT22;21661;50.794;-1.066;2023-02-27T13:09:23;9.00;99.90
35559;DHT22;21661;50.794;-1.066;2023-02-27T13:14:52;9.20;99.90
35559;DHT22;21661;50.794;-1.066;2023-02-27T13:20:21;9.20;99.90
35559;DHT22;21661;50.794;-1.066;2023-02-27T13:25:27;8.90;99.90
35559;DHT22;21661;50.794;-1.066;2023-02-27T13:27:57;8.90;99.90
35559;DHT22;21661;50.794;-1.066;2023-02-27T13:30:29;8.80;99.90
35559;DHT22;21661;50.794;-1.066;2023-02-27T13:33:06;8.80;99.90
35559;DHT22;21661;50.794;-1.066;2023-02-27T13:35:47;8.70;99.90
35559;DHT22;21661;50.794;-1.066;2023-02-27T13:43:49;8.80;99.90
35559;DHT22;21661;50.794;-1.066;2023-02-27T13:46:26;8.80;99.90
35559;DHT22;21661;50.794;-1.066;2023-02-27T13:54:27;9.10;99.90
35559;DHT22;21661;50.794;-1.066;2023-02-27T13:59:32;9.10;99.90
35559;DHT22;21661;50.794;-1.066;2023-02-27T14:02:02;9.10;99.90
35559;DHT22;21661;50.794;-1.066;2023-02-27T14:04:32;9.10;99.90
35559;DHT22;21661;50.794;-1.066;2023-02-27T14:07:02;9.10;99.90
35559;DHT22;21661;50.794;-1.066;2023-02-27T14:09:33;9.10;99.90
35559;DHT22;21661;50.794;-1.066;2023-02-27T14:12:00;9.00;99.90
35559;DHT22;21661;50.794;-1.066;2023-02-27T14:17:09;9.00;99.90
35559;DHT22;21661;50.794;-1.066;2023-02-27T14:24:46;9.10;99.90
35559;DHT22;21661;50.794;-1.066;2023-02-27T14:27:20;9.00;99.90
35559;DHT22;21661;50.794;-1.066;2023-02-27T14:29:50;8.90;99.90
35559;DHT22;21661;50.794;-1.066;2023-02-27T14:32:20;8.90;99.90
35559;DHT22;21661;50.794;-1.066;2023-02-27T14:34:47;8.90;99.90
35559;DHT22;21661;50.794;-1.066;2023-02-27T14:37:16;9.00;99.90
35559;DHT22;21661;50.794;-1.066;2023-02-27T14:39:43;9.10;99.90
35559;DHT22;21661;50.794;-1.066;2023-02-27T14:45:17;9.20;99.90
35559;DHT22;21661;50.794;-1.066;2023-02-27T14:47:43;9.30;99.90
35559;DHT22;21661;50.794;-1.066;2023-02-27T14:50:26;9.40;99.90
35559;DHT22;21661;50.794;-1.066;2023-02-27T14:52:52;9.50;99.90
35559;DHT22;21661;50.794;-1.066;2023-02-27T14:55:25;9.50;99.90
35559;DHT22;21661;50.794;-1.066;2023-02-27T15:00:40;9.40;99.90
35559;DHT22;21661;50.794;-1.066;2023-02-27T15:03:21;9.20;99.90
35559;DHT22;21661;50.794;-1.066;2023-02-27T15:05:48;9.20;99.90
35559;DHT22;21661;50.794;-1.066;2023-02-27T15:08:25;9.10;99.90
35559;DHT22;21661;50.794;-1.066;2023-02-27T15:10:54;9.00;99.90
35559;DHT22;21661;50.794;-1.066;2023-02-27T15:13:30;8.90;99.90
35559;DHT22;21661;50.794;-1.066;2023-02-27T15:18:54;8.70;99.90
35559;DHT22;21661;50.794;-1.066;2023-02-27T15:21:23;8.70;99.90
35559;DHT22;21661;50.794;-1.066;2023-02-27T15:24:03;8.80;99.90
35559;DHT22;21661;50.794;-1.066;2023-02-27T15:26:36;9.00;99.90
35559;DHT22;21661;50.794;-1.066;2023-02-27T15:29:07;9.10;99.90
35559;DHT22;21661;50.794;-1.066;2023-02-27T15:31:33;9.10;99.90
35559;DHT22;21661;50.794;-1.066;2023-02-27T15:34:01;9.00;99.90
35559;DHT22;21661;50.794;-1.066;2023-02-27T15:36:30;9.00;99.90
35559;DHT22;21661;50.794;-1.066;2023-02-27T15:41:41;9.10;99.90
35559;DHT22;21661;50.794;-1.066;2023-02-27T15:44:06;9.10;99.90
35559;DHT22;21661;50.794;-1.066;2023-02-27T15:46:32;9.20;99.90
35559;DHT22;21661;50.794;-1.066;2023-02-27T15:48:58;9.20;99.90
35559;DHT22;21661;50.794;-1.066;2023-02-27T15:51:25;9.10;99.90
35559;DHT22;21661;50.794;-1.066;2023-02-27T15:53:54;9.20;99.90
35559;DHT22;21661;50.794;-1.066;2023-02-27T15:56:33;9.10;99.90
35559;DHT22;21661;50.794;-1.066;2023-02-27T15:59:00;9.10;99.90
35559;DHT22;21661;50.794;-1.066;2023-02-27T16:01:27;8.90;99.90
35559;DHT22;21661;50.794;-1.066;2023-02-27T16:04:00;8.80;99.90
35559;DHT22;21661;50.794;-1.066;2023-02-27T16:06:30;8.70;99.90
35559;DHT22;21661;50.794;-1.066;2023-02-27T16:08:59;8.70;99.90
35559;DHT22;21661;50.794;-1.066;2023-02-27T16:11:29;8.70;99.90
35559;DHT22;21661;50.794;-1.066;2023-02-27T16:13:55;8.80;99.90
35559;DHT22;21661;50.794;-1.066;2023-02-27T16:16:31;8.90;99.90
35559;DHT22;21661;50.794;-1.066;2023-02-27T16:22:16;9.10;99.90
35559;DHT22;21661;50.794;-1.066;2023-02-27T16:24:43;9.00;99.90
35559;DHT22;21661;50.794;-1.066;2023-02-27T16:27:23;9.10;99.90
35559;DHT22;21661;50.794;-1.066;2023-02-27T16:29:51;9.10;99.90
35559;DHT22;21661;50.794;-1.066;2023-02-27T16:34:48;9.10;99.90
35559;DHT22;21661;50.794;-1.066;2023-02-27T16:37:38;9.00;99.90
35559;DHT22;21661;50.794;-1.066;2023-02-27T16:42:42;8.90;99.90
35559;DHT22;21661;50.794;-1.066;2023-02-27T16:45:18;8.90;99.90
35559;DHT22;21661;50.794;-1.066;2023-02-27T16:47:47;8.80;99.90
35559;DHT22;21661;50.794;-1.066;2023-02-27T16:50:34;8.70;99.90
35559;DHT22;21661;50.794;-1.066;2023-02-27T16:52:59;8.70;99.90
35559;DHT22;21661;50.794;-1.066;2023-02-27T16:55:25;8.70;99.90
35559;DHT22;21661;50.794;-1.066;2023-02-27T16:57:52;8.70;99.90
35559;DHT22;21661;50.794;-1.066;2023-02-27T17:00:18;8.70;99.90
35559;DHT22;21661;50.794;-1.066;2023-02-27T17:02:44;8.60;99.90
35559;DHT22;21661;50.794;-1.066;2023-02-27T17:05:11;8.60;99.90
35559;DHT22;21661;50.794;-1.066;2023-02-27T17:07:40;8.50;99.90
35559;DHT22;21661;50.794;-1.066;2023-02-27T17:10:06;8.40;99.90
35559;DHT22;21661;50.794;-1.066;2023-02-27T17:12:32;8.40;99.90
35559;DHT22;21661;50.794;-1.066;2023-02-27T17:14:57;8.30;99.90
35559;DHT22;21661;50.794;-1.066;2023-02-27T17:17:23;8.40;99.90
35559;DHT22;21661;50.794;-1.066;2023-02-27T17:19:48;8.30;99.90
35559;DHT22;21661;50.794;-1.066;2023-02-27T17:22:14;8.20;99.90
35559;DHT22;21661;50.794;-1.066;2023-02-27T17:24:40;8.20;99.90
35559;DHT22;21661;50.794;-1.066;2023-02-27T17:27:05;8.10;99.90
35559;DHT22;21661;50.794;-1.066;2023-02-27T17:29:31;8.10;99.90
35559;DHT22;21661;50.794;-1.066;2023-02-27T17:31:58;8.00;99.90
35559;DHT22;21661;50.794;-1.066;2023-02-27T17:34:23;8.00;99.90
35559;DHT22;21661;50.794;-1.066;2023-02-27T17:36:49;8.00;99.90
35559;DHT22;21661;50.794;-1.066;2023-02-27T17:39:15;7.90;99.90
35559;DHT22;21661;50.794;-1.066;2023-02-27T17:41:42;7.90;99.90
35559;DHT22;21661;50.794;-1.066;2023-02-27T17:44:11;7.80;99.90
35559;DHT22;21661;50.794;-1.066;2023-02-27T17:46:38;7.80;99.90
35559;DHT22;21661;50.794;-1.066;2023-02-27T17:49:04;7.80;99.90
35559;DHT22;21661;50.794;-1.066;2023-02-27T17:51:30;7.80;99.90
35559;DHT22;21661;50.794;-1.066;2023-02-27T17:53:56;7.80;99.90
35559;DHT22;21661;50.794;-1.066;2023-02-27T17:56:22;7.80;99.90
35559;DHT22;21661;50.794;-1.066;2023-02-27T17:58:48;7.80;99.90
35559;DHT22;21661;50.794;-1.066;2023-02-27T18:01:16;7.90;99.90
35559;DHT22;21661;50.794;-1.066;2023-02-27T18:03:44;7.90;99.90
35559;DHT22;21661;50.794;-1.066;2023-02-27T18:06:10;7.90;99.90
35559;DHT22;21661;50.794;-1.066;2023-02-27T18:08:36;7.90;99.90
35559;DHT22;21661;50.794;-1.066;2023-02-27T18:11:02;7.90;99.90
35559;DHT22;21661;50.794;-1.066;2023-02-27T18:13:28;7.90;99.90
35559;DHT22;21661;50.794;-1.066;2023-02-27T18:15:55;7.90;99.90
35559;DHT22;21661;50.794;-1.066;2023-02-27T18:18:22;7.90;99.90
35559;DHT22;21661;50.794;-1.066;2023-02-27T18:21:01;7.90;99.90
35559;DHT22;21661;50.794;-1.066;2023-02-27T18:23:28;7.80;99.90
35559;DHT22;21661;50.794;-1.066;2023-02-27T18:25:57;7.80;99.90
35559;DHT22;21661;50.794;-1.066;2023-02-27T18:28:25;7.90;99.90
35559;DHT22;21661;50.794;-1.066;2023-02-27T18:30:50;7.80;99.90
35559;DHT22;21661;50.794;-1.066;2023-02-27T18:33:16;7.90;99.90
35559;DHT22;21661;50.794;-1.066;2023-02-27T18:35:42;7.90;99.90
35559;DHT22;21661;50.794;-1.066;2023-02-27T18:38:07;7.80;99.90
35559;DHT22;21661;50.794;-1.066;2023-02-27T18:40:33;7.90;99.90
35559;DHT22;21661;50.794;-1.066;2023-02-27T18:42:59;7.80;99.90
35559;DHT22;21661;50.794;-1.066;2023-02-27T18:45:25;7.80;99.90
35559;DHT22;21661;50.794;-1.066;2023-02-27T18:47:50;7.80;99.90
35559;DHT22;21661;50.794;-1.066;2023-02-27T18:50:17;7.80;99.90